createdAt,value
2018-08-23T00:01:28.188Z,24.00
2018-08-23T00:04:02.732Z,22.82
2018-08-23T00:06:31.017Z,24.10
2018-08-23T00:08:59.314Z,24.37
2018-08-23T00:11:28.893Z,24.43
2018-08-23T00:13:57.238Z,24.17
2018-08-23T00:16:46.550Z,24.17
2018-08-23T00:24:19.695Z,25.77
2018-08-23T00:26:52.494Z,24.90
2018-08-23T00:29:33.064Z,25.27
2018-08-23T00:32:06.554Z,26.43
2018-08-23T00:34:36.645Z,27.87
2018-08-23T00:37:05.574Z,27.13
2018-08-23T00:41:52.500Z,28.43
2018-08-23T00:44:20.830Z,27.17
2018-08-23T00:46:49.184Z,26.07
2018-08-23T00:49:17.442Z,28.00
2018-08-23T00:51:45.770Z,27.73
2018-08-23T00:54:14.055Z,27.67
2018-08-23T00:56:42.457Z,28.63
2018-08-23T00:59:11.754Z,27.17
2018-08-23T01:01:40.788Z,27.57
2018-08-23T01:04:09.089Z,27.73
2018-08-23T01:06:40.298Z,28.53
2018-08-23T01:09:09.556Z,29.63
2018-08-23T01:11:38.005Z,28.63
2018-08-23T01:14:06.268Z,30.93
2018-08-23T01:16:34.519Z,28.60
2018-08-23T01:20:08.469Z,28.50
2018-08-23T01:22:37.149Z,29.87
2018-08-23T01:25:05.505Z,29.80
2018-08-23T01:27:37.625Z,26.83
2018-08-23T01:30:06.067Z,27.37
2018-08-23T01:32:34.416Z,28.23
2018-08-23T01:35:02.922Z,28.07
2018-08-23T01:37:40.716Z,28.43
2018-08-23T01:40:10.287Z,33.17
2018-08-23T01:42:39.683Z,31.97
2018-08-23T01:45:09.059Z,33.07
2018-08-23T01:47:43.121Z,31.53
2018-08-23T01:50:12.130Z,29.27
2018-08-23T01:52:52.890Z,28.63
2018-08-23T01:55:22.428Z,32.43
2018-08-23T01:57:51.269Z,31.50
2018-08-23T02:00:20.890Z,32.07
2018-08-23T02:02:49.142Z,33.20
2018-08-23T02:05:17.373Z,29.20
2018-08-23T02:07:45.966Z,30.60
2018-08-23T02:10:14.219Z,31.87
2018-08-23T02:12:47.877Z,33.93
2018-08-23T02:15:16.090Z,32.27
2018-08-23T02:17:47.179Z,32.37
2018-08-23T02:20:15.522Z,32.40
2018-08-23T02:22:43.862Z,31.87
2018-08-23T02:25:12.132Z,34.27
2018-08-23T02:28:08.592Z,31.60
2018-08-23T02:30:51.505Z,32.83
2018-08-23T02:33:19.760Z,38.23
2018-08-23T02:36:03.442Z,35.97
2018-08-23T02:38:31.677Z,38.13
2018-08-23T02:40:59.938Z,33.70
2018-08-23T02:43:28.144Z,34.53
2018-08-23T02:45:56.451Z,35.90
2018-08-23T02:48:25.067Z,36.73
2018-08-23T02:50:53.800Z,37.97
2018-08-23T02:53:30.454Z,37.43
2018-08-23T02:56:03.350Z,37.90
2018-08-23T02:58:31.658Z,34.43
2018-08-23T03:01:03.964Z,37.43
2018-08-23T03:03:33.607Z,40.73
2018-08-23T03:06:01.847Z,39.80
2018-08-23T03:08:42.314Z,38.33
2018-08-23T03:11:10.531Z,36.73
2018-08-23T03:13:41.501Z,38.53
2018-08-23T03:16:09.792Z,40.37
2018-08-23T03:18:38.009Z,42.00
2018-08-23T03:21:07.484Z,41.73
2018-08-23T03:23:35.928Z,37.73
2018-08-23T03:26:04.163Z,42.63
2018-08-23T03:28:34.485Z,41.17
2018-08-23T03:31:03.566Z,37.97
2018-08-23T03:33:33.405Z,36.77
2018-08-23T03:36:02.338Z,41.67
2018-08-23T03:38:30.523Z,40.43
2018-08-23T03:40:58.792Z,36.10
2018-08-23T03:43:27.125Z,37.87
2018-08-23T03:45:57.857Z,45.07
2018-08-23T03:48:26.130Z,42.23
2018-08-23T03:50:55.016Z,39.47
2018-08-23T03:53:26.162Z,40.33
2018-08-23T03:56:07.021Z,39.00
2018-08-23T03:58:35.600Z,38.40
2018-08-23T04:01:04.982Z,40.90
2018-08-23T04:03:33.369Z,37.97
2018-08-23T04:06:22.157Z,39.90
2018-08-23T04:08:50.706Z,42.07
2018-08-23T04:11:19.276Z,40.83
2018-08-23T04:13:48.493Z,40.30
2018-08-23T04:16:24.340Z,44.87
2018-08-23T04:18:52.634Z,42.80
2018-08-23T04:21:20.971Z,44.60
2018-08-23T04:23:49.304Z,40.92
2018-08-23T04:26:17.632Z,44.27
2018-08-23T04:28:46.122Z,41.53
2018-08-23T04:31:14.458Z,44.77
2018-08-23T04:33:42.856Z,44.80
2018-08-23T04:36:26.508Z,40.30
2018-08-23T04:39:02.025Z,39.57
2018-08-23T04:41:31.510Z,43.33
2018-08-23T04:44:15.940Z,37.88
2018-08-23T04:46:44.304Z,41.50
2018-08-23T04:49:12.529Z,43.27
2018-08-23T04:51:40.819Z,39.90
2018-08-23T04:54:09.028Z,43.30
2018-08-23T04:56:37.193Z,37.97
2018-08-23T04:59:05.437Z,42.83
2018-08-23T05:01:33.753Z,42.00
2018-08-23T05:04:02.189Z,37.00
2018-08-23T05:06:30.487Z,38.83
2018-08-23T05:08:58.700Z,38.27
2018-08-23T05:11:26.980Z,35.50
2018-08-23T05:13:55.332Z,38.97
2018-08-23T05:16:24.938Z,36.68
2018-08-23T05:18:53.141Z,39.07
2018-08-23T05:21:21.520Z,40.03
2018-08-23T05:23:50.093Z,39.70
2018-08-23T05:26:19.056Z,38.07
2018-08-23T05:29:00.488Z,39.57
2018-08-23T05:31:30.136Z,34.77
2018-08-23T05:34:01.153Z,38.67
2018-08-23T05:36:29.347Z,41.83
2018-08-23T05:38:57.758Z,38.57
2018-08-23T05:41:26.100Z,41.97
2018-08-23T05:44:02.425Z,43.17
2018-08-23T05:46:44.135Z,44.80
2018-08-23T05:49:12.596Z,46.63
2018-08-23T05:51:42.149Z,46.07
2018-08-23T05:54:10.490Z,48.90
2018-08-23T05:56:38.713Z,47.60
2018-08-23T05:59:12.415Z,46.15
2018-08-23T06:01:40.828Z,45.47
2018-08-23T06:04:09.022Z,52.93
2018-08-23T06:06:37.258Z,52.03
2018-08-23T06:09:10.853Z,53.77
2018-08-23T06:11:39.253Z,55.83
2018-08-23T06:14:07.514Z,52.83
2018-08-23T06:16:45.865Z,51.80
2018-08-23T06:19:14.174Z,50.58
2018-08-23T06:21:42.447Z,53.55
2018-08-23T06:24:10.669Z,53.25
2018-08-23T06:26:46.848Z,50.03
2018-08-23T06:29:19.962Z,55.55
2018-08-23T06:31:55.455Z,49.53
2018-08-23T06:34:24.521Z,44.35
2018-08-23T06:36:53.230Z,49.97
2018-08-23T06:39:22.536Z,49.27
2018-08-23T06:41:53.754Z,51.90
2018-08-23T06:44:22.675Z,51.53
2018-08-23T06:46:50.946Z,47.87
2018-08-23T06:49:19.169Z,50.28
2018-08-23T06:51:52.334Z,49.67
2018-08-23T06:54:20.621Z,49.63
2018-08-23T07:11:33.558Z,48.78
2018-08-23T07:14:07.568Z,46.33
2018-08-23T07:16:36.528Z,50.88
2018-08-23T07:19:15.876Z,54.30
2018-08-23T07:21:44.419Z,49.45
2018-08-23T07:24:25.530Z,46.64
2018-08-23T07:26:53.880Z,52.83
2018-08-23T07:29:22.332Z,55.83
2018-08-23T07:32:00.580Z,51.55
2018-08-23T07:34:29.004Z,52.08
2018-08-23T07:36:59.399Z,43.95
2018-08-23T07:39:28.538Z,45.48
2018-08-23T07:41:56.765Z,49.15
2018-08-23T07:44:25.042Z,47.20
2018-08-23T07:46:53.435Z,47.05
2018-08-23T07:49:21.805Z,47.35
2018-08-23T07:51:52.329Z,44.83
2018-08-23T07:54:22.044Z,45.98
2018-08-23T07:56:50.401Z,41.50
2018-08-23T07:59:18.627Z,39.88
2018-08-23T08:01:47.373Z,37.53
2018-08-23T08:04:15.659Z,36.15
2018-08-23T08:06:43.985Z,34.40
2018-08-23T08:09:12.296Z,31.53
2018-08-23T08:11:50.909Z,33.20
2018-08-23T08:14:24.411Z,31.95
2018-08-23T08:16:52.728Z,29.80
2018-08-23T08:19:21.319Z,31.27
2018-08-23T08:21:49.607Z,32.75
2018-08-23T08:24:17.893Z,27.55
2018-08-23T08:26:46.454Z,26.73
2018-08-23T08:29:19.118Z,25.45
2018-08-23T08:31:47.618Z,24.65
2018-08-23T08:34:15.889Z,25.88
2018-08-23T08:36:44.118Z,22.85
2018-08-23T08:39:13.461Z,18.85
2018-08-23T08:41:41.992Z,19.40
2018-08-23T08:44:10.383Z,17.12
2018-08-23T08:46:38.737Z,18.55
2018-08-23T08:49:06.945Z,15.83
2018-08-23T08:51:35.160Z,19.02
2018-08-23T08:54:04.228Z,18.57
2018-08-23T08:56:38.143Z,22.50
2018-08-23T08:59:06.711Z,18.50
2018-08-23T09:01:35.717Z,18.17
2018-08-23T09:04:04.270Z,19.82
2018-08-23T09:11:53.337Z,18.62
2018-08-23T09:14:21.591Z,18.32
2018-08-23T09:16:50.800Z,19.32
2018-08-23T09:19:19.230Z,19.05
2018-08-23T09:22:00.537Z,20.00
2018-08-23T09:24:28.753Z,18.75
2018-08-23T09:26:57.358Z,17.40
2018-08-23T09:29:35.621Z,17.25
2018-08-23T09:32:21.228Z,18.23
2018-08-23T09:34:50.080Z,16.97
2018-08-23T09:37:21.302Z,15.83
2018-08-23T09:39:51.028Z,14.00
2018-08-23T09:42:22.389Z,14.33
2018-08-23T09:45:04.686Z,13.08
2018-08-23T09:47:38.386Z,11.97
2018-08-23T09:50:07.582Z,12.37
2018-08-23T09:52:44.113Z,10.67
2018-08-23T09:55:14.431Z,12.50
2018-08-23T09:57:43.271Z,10.88
2018-08-23T10:00:12.705Z,11.30
2018-08-23T10:02:46.286Z,11.60
2018-08-23T10:05:19.774Z,11.33
2018-08-23T10:07:53.378Z,10.55
2018-08-23T10:10:27.015Z,12.25
2018-08-23T10:13:00.555Z,10.78
2018-08-23T10:15:34.191Z,11.40
2018-08-23T10:18:08.735Z,11.95
2018-08-23T10:20:45.190Z,10.70
2018-08-23T10:23:14.816Z,10.28
2018-08-23T10:25:48.186Z,9.55
2018-08-23T10:28:17.804Z,8.85
2018-08-23T10:30:46.384Z,11.90
2018-08-23T10:33:14.744Z,10.53
2018-08-23T10:35:50.417Z,9.88
2018-08-23T10:38:20.721Z,8.93
2018-08-23T10:40:50.086Z,8.55
2018-08-23T10:43:22.606Z,9.57
2018-08-23T10:45:50.951Z,9.58
2018-08-23T10:48:19.889Z,9.58
2018-08-23T10:50:50.235Z,10.70
2018-08-23T10:53:19.050Z,10.50
2018-08-23T10:55:47.375Z,12.37
2018-08-23T10:58:15.625Z,11.12
2018-08-23T11:00:44.104Z,9.93
2018-08-23T11:03:12.452Z,10.70
2018-08-23T11:05:40.729Z,11.15
2018-08-23T11:08:14.501Z,13.43
2018-08-23T11:10:48.035Z,11.03
2018-08-23T11:13:21.728Z,11.47
2018-08-23T11:15:50.913Z,12.30
2018-08-23T11:18:24.599Z,14.13
2018-08-23T11:20:52.840Z,13.10
2018-08-23T11:23:24.173Z,13.93
2018-08-23T11:25:52.653Z,11.30
2018-08-23T11:28:23.910Z,10.13
2018-08-23T11:30:54.223Z,13.03
2018-08-23T11:33:23.817Z,12.98
2018-08-23T11:35:52.234Z,12.10
2018-08-23T11:38:20.579Z,12.53
2018-08-23T11:40:50.316Z,11.80
2018-08-23T11:43:18.575Z,13.88
2018-08-23T11:45:46.833Z,10.03
2018-08-23T11:48:15.217Z,11.22
2018-08-23T11:50:43.514Z,11.03
2018-08-23T11:53:11.838Z,11.60
2018-08-23T11:55:40.269Z,11.73
2018-08-23T11:58:08.773Z,9.00
2018-08-23T12:00:37.038Z,11.73
2018-08-23T12:03:05.429Z,8.30
2018-08-23T12:05:34.445Z,7.78
2018-08-23T12:08:02.737Z,8.50
2018-08-23T12:10:30.998Z,7.72
2018-08-23T12:12:59.593Z,7.55
2018-08-23T12:15:29.486Z,7.33
2018-08-23T12:17:58.161Z,6.67
2018-08-23T12:20:26.374Z,7.40
2018-08-23T12:22:54.812Z,8.55
2018-08-23T12:25:23.082Z,6.80
2018-08-23T12:27:57.718Z,9.08
2018-08-23T12:30:25.960Z,7.92
2018-08-23T12:32:54.287Z,7.30
2018-08-23T12:35:22.861Z,7.87
2018-08-23T12:38:01.191Z,7.80
2018-08-23T12:40:35.797Z,5.92
2018-08-23T12:43:12.718Z,7.07
2018-08-23T12:45:43.355Z,6.58
2018-08-23T12:48:12.719Z,5.97
2018-08-23T12:50:42.866Z,14.33
2018-08-23T12:53:12.471Z,7.17
2018-08-23T12:55:40.752Z,6.37
2018-08-23T12:58:09.879Z,5.80
2018-08-23T13:00:38.747Z,6.33
2018-08-23T13:03:07.470Z,6.00
2018-08-23T13:05:36.077Z,4.45
2018-08-23T13:08:04.520Z,6.57
2018-08-23T13:10:33.063Z,4.75
2018-08-23T13:13:01.366Z,4.73
2018-08-23T13:15:29.757Z,6.28
2018-08-23T13:17:57.997Z,7.72
2018-08-23T13:20:26.236Z,6.05
2018-08-23T13:22:54.475Z,5.47
2018-08-23T13:25:23.791Z,4.37
2018-08-23T13:27:52.489Z,7.42
2018-08-23T13:30:21.066Z,6.00
2018-08-23T13:32:53.203Z,8.80
2018-08-23T13:35:21.812Z,4.22
2018-08-23T13:37:50.227Z,3.70
2018-08-23T13:40:19.603Z,4.80
2018-08-23T13:42:48.429Z,4.42
2018-08-23T13:45:17.217Z,5.40
2018-08-23T13:47:46.558Z,4.20
2018-08-23T13:50:14.989Z,4.10
2018-08-23T13:52:44.490Z,4.97
2018-08-23T13:55:13.292Z,8.13
2018-08-23T13:57:42.299Z,4.37
2018-08-23T14:00:15.086Z,5.03
2018-08-23T14:02:43.610Z,3.98
2018-08-23T14:05:11.756Z,5.10
2018-08-23T14:07:40.256Z,4.60
2018-08-23T14:10:14.252Z,5.70
2018-08-23T14:12:42.561Z,6.55
2018-08-23T14:15:16.108Z,4.95
2018-08-23T14:17:44.418Z,4.67
2018-08-23T14:20:12.862Z,3.87
2018-08-23T14:22:41.750Z,5.92
2018-08-23T14:31:58.792Z,5.00
2018-08-23T14:34:27.042Z,6.05
2018-08-23T14:36:58.538Z,8.65
2018-08-23T14:39:27.222Z,7.10
2018-08-23T14:41:58.701Z,4.55
2018-08-23T14:52:30.506Z,7.05
2018-08-23T14:54:59.892Z,4.83
2018-08-23T14:57:32.862Z,5.58
2018-08-23T15:00:01.259Z,7.80
2018-08-23T15:02:29.776Z,8.65
2018-08-23T15:04:58.366Z,8.28
2018-08-23T15:07:26.771Z,6.80
2018-08-23T15:09:55.771Z,7.50
2018-08-23T15:12:24.028Z,6.62
2018-08-23T15:14:53.302Z,8.08
2018-08-23T15:17:21.602Z,5.92
2018-08-23T15:19:49.839Z,5.95
2018-08-23T15:22:18.038Z,6.92
2018-08-23T15:24:46.318Z,5.55
2018-08-23T15:27:14.876Z,4.97
2018-08-23T15:29:43.273Z,6.65
2018-08-23T15:32:11.588Z,5.55
2018-08-23T15:34:39.789Z,9.75
2018-08-23T15:37:09.430Z,6.05
2018-08-23T15:39:40.076Z,7.45
2018-08-23T15:42:08.458Z,6.10
2018-08-23T15:44:36.736Z,7.05
2018-08-23T15:47:05.418Z,5.97
2018-08-23T15:49:33.718Z,5.60
2018-08-23T15:52:03.211Z,5.00
2018-08-23T15:54:31.481Z,7.50
2018-08-23T15:56:59.804Z,5.90
2018-08-23T15:59:28.034Z,6.10
2018-08-23T16:01:56.421Z,6.75
2018-08-23T16:04:24.928Z,5.40
2018-08-23T16:06:53.298Z,7.95
2018-08-23T16:09:21.553Z,7.12
2018-08-23T16:11:49.790Z,9.75
2018-08-23T16:14:18.388Z,7.70
2018-08-23T16:16:53.664Z,7.12
2018-08-23T16:19:27.348Z,7.75
2018-08-23T16:21:55.566Z,7.75
2018-08-23T16:24:25.550Z,6.33
2018-08-23T16:31:59.464Z,6.60
2018-08-23T16:34:27.996Z,8.83
2018-08-23T16:36:56.356Z,8.73
2018-08-23T16:39:24.757Z,7.45
2018-08-23T16:41:53.745Z,8.80
2018-08-23T16:44:22.049Z,11.80
2018-08-23T16:46:50.543Z,9.83
2018-08-23T16:49:19.193Z,8.78
2018-08-23T16:51:47.498Z,11.35
2018-08-23T16:54:19.069Z,12.00
2018-08-23T16:56:47.533Z,9.75
2018-08-23T16:59:15.834Z,13.37
2018-08-23T17:01:44.090Z,11.77
2018-08-23T17:04:12.407Z,10.40
2018-08-23T17:06:40.896Z,13.03
2018-08-23T17:09:09.304Z,10.78
2018-08-23T17:11:37.882Z,9.10
2018-08-23T17:14:06.138Z,12.15
2018-08-23T17:16:39.706Z,7.60
2018-08-23T17:19:07.990Z,9.65
2018-08-23T17:21:36.438Z,8.00
2018-08-23T17:24:04.757Z,7.33
2018-08-23T17:26:33.581Z,8.75
2018-08-23T17:29:02.479Z,8.78
2018-08-23T17:31:30.750Z,9.35
2018-08-23T17:33:58.983Z,6.67
2018-08-23T17:36:27.477Z,8.53
2018-08-23T17:38:57.303Z,8.55
2018-08-23T17:41:25.540Z,6.58
2018-08-23T17:43:53.800Z,6.45
2018-08-23T17:46:22.486Z,10.58
2018-08-23T17:48:50.997Z,5.85
2018-08-23T17:51:19.730Z,6.75
2018-08-23T17:53:48.167Z,7.25
2018-08-23T17:56:16.389Z,9.23
2018-08-23T17:58:44.726Z,6.83
2018-08-23T18:01:14.657Z,6.28
2018-08-23T18:03:43.181Z,10.08
2018-08-23T18:06:11.729Z,7.60
2018-08-23T18:08:40.667Z,6.28
2018-08-23T18:11:09.092Z,5.65
2018-08-23T18:13:37.350Z,5.87
2018-08-23T18:16:11.353Z,9.35
2018-08-23T18:18:39.580Z,6.70
2018-08-23T18:21:07.881Z,6.87
2018-08-23T18:23:36.265Z,7.20
2018-08-23T18:26:04.442Z,7.85
2018-08-23T18:28:32.977Z,11.83
2018-08-23T18:31:01.348Z,11.80
2018-08-23T18:33:29.635Z,10.53
2018-08-23T18:35:57.983Z,10.23
2018-08-23T18:38:26.288Z,12.73
2018-08-23T18:40:54.616Z,10.30
2018-08-23T18:43:22.846Z,9.43
2018-08-23T18:45:51.746Z,12.30
2018-08-23T18:48:20.323Z,9.45
2018-08-23T18:50:48.514Z,10.03
2018-08-23T18:53:16.785Z,9.15
2018-08-23T18:55:45.087Z,11.08
2018-08-23T18:58:13.360Z,8.88
2018-08-23T19:00:41.629Z,11.47
2018-08-23T19:03:09.893Z,10.08
2018-08-23T19:05:38.175Z,11.18
2018-08-23T19:12:02.536Z,11.60
2018-08-23T19:14:30.768Z,10.18
2018-08-23T19:17:31.088Z,9.80
2018-08-23T19:19:59.344Z,10.63
2018-08-23T19:22:27.614Z,8.80
2018-08-23T19:24:56.397Z,8.95
2018-08-23T19:27:25.512Z,9.50
2018-08-23T19:29:53.742Z,9.43
2018-08-23T19:32:22.009Z,9.83
2018-08-23T19:34:50.472Z,8.88
2018-08-23T19:37:20.155Z,8.75
2018-08-23T19:39:48.359Z,7.40
2018-08-23T19:42:16.806Z,9.48
2018-08-23T19:44:50.162Z,8.75
2018-08-23T19:47:23.774Z,8.20
2018-08-23T19:49:56.338Z,7.63
2018-08-23T19:52:24.530Z,8.70
2018-08-23T19:54:53.103Z,8.53
2018-08-23T19:57:21.971Z,10.17
2018-08-23T20:02:03.484Z,9.17
2018-08-23T20:04:31.707Z,9.83
2018-08-23T20:07:00.187Z,8.70
2018-08-23T20:09:28.400Z,9.00
2018-08-23T20:11:56.685Z,10.80
2018-08-23T20:14:24.989Z,9.38
2018-08-23T20:16:53.300Z,9.60
2018-08-23T20:19:21.563Z,9.57
2018-08-23T20:21:49.787Z,9.07
2018-08-23T20:24:17.991Z,9.77
2018-08-23T20:26:46.231Z,8.90
2018-08-23T20:29:15.403Z,8.20
2018-08-23T20:31:44.599Z,8.80
2018-08-23T20:34:12.867Z,9.13
2018-08-23T20:36:41.141Z,9.63
2018-08-23T20:39:11.753Z,9.33
2018-08-23T20:41:39.904Z,7.97
2018-08-23T20:44:08.165Z,8.03
2018-08-23T20:46:36.557Z,8.93
2018-08-23T20:49:04.880Z,7.87
2018-08-23T20:51:34.664Z,8.23
2018-08-23T20:54:02.977Z,8.23
2018-08-23T20:56:31.227Z,6.73
2018-08-23T20:58:59.420Z,5.60
2018-08-23T21:01:27.983Z,10.20
2018-08-23T21:03:56.357Z,6.53
2018-08-23T21:06:24.894Z,7.43
2018-08-23T21:08:53.842Z,8.43
2018-08-23T21:11:22.094Z,7.73
2018-08-23T21:22:05.617Z,5.77
2018-08-23T21:24:34.037Z,4.47
2018-08-23T21:27:02.569Z,6.47
2018-08-23T21:29:30.884Z,5.90
2018-08-23T21:31:59.230Z,5.40
2018-08-23T21:34:27.586Z,6.07
2018-08-23T21:36:56.014Z,4.80
2018-08-23T21:39:24.307Z,4.12
2018-08-23T21:41:53.766Z,6.20
2018-08-23T21:44:21.986Z,4.10
2018-08-23T21:46:50.346Z,3.83
2018-08-23T21:49:18.574Z,3.80
2018-08-23T21:51:47.944Z,5.27
2018-08-23T21:54:16.556Z,3.40
2018-08-23T22:00:06.868Z,3.77
2018-08-23T22:07:28.483Z,2.97
2018-08-23T22:09:56.789Z,5.77
2018-08-23T22:12:25.925Z,4.53
2018-08-23T22:14:54.982Z,4.95
2018-08-23T22:17:23.759Z,3.30
2018-08-23T22:19:52.738Z,3.37
2018-08-23T22:22:20.993Z,3.73
2018-08-23T22:24:49.274Z,4.00
2018-08-23T22:27:17.504Z,3.43
2018-08-23T22:29:45.807Z,3.40
2018-08-23T22:32:14.028Z,4.07
2018-08-23T22:34:42.210Z,2.93
2018-08-23T22:37:13.492Z,2.80
2018-08-23T22:39:41.763Z,3.17
2018-08-23T22:42:10.108Z,3.00
2018-08-23T22:44:38.317Z,3.50
2018-08-23T22:47:06.795Z,3.57
2018-08-23T22:49:35.260Z,3.03
2018-08-23T22:52:03.436Z,2.97
2018-08-23T22:54:31.889Z,2.65
2018-08-23T22:57:00.125Z,2.80
2018-08-23T22:59:28.340Z,2.87
2018-08-23T23:01:56.744Z,4.23
2018-08-23T23:21:46.028Z,2.33
2018-08-23T23:24:19.541Z,2.60
2018-08-23T23:26:47.834Z,3.13
2018-08-23T23:29:16.240Z,3.40
2018-08-23T23:31:44.523Z,2.87
2018-08-23T23:34:12.748Z,2.03
2018-08-23T23:36:41.005Z,4.53
2018-08-23T23:39:09.319Z,5.10
2018-08-23T23:41:37.485Z,2.83
2018-08-23T23:44:05.761Z,2.50
2018-08-23T23:46:34.022Z,3.77
2018-08-23T23:49:03.126Z,3.12
2018-08-23T23:51:31.380Z,2.70
2018-08-23T23:53:59.633Z,2.13
2018-08-23T23:56:27.952Z,3.40
2018-08-23T23:58:56.217Z,2.70
